Skip Navigation Links
NOAA logo - Click to go to the NOAA homepage
NOAA's National Weather Service
Alaska Aviation Weather Unit
  NWS logo - Click to go to the NWS homepage
Left Navbar Graphic     21 AKDT = 05 GMT

   
NOAA is celebrating 200 years of science, service, and stewardship. Visit the NOAA 200th celebration Web site to learn more.
USA.gov is the U.S. Government's official Web portal to all Federal, state and local government Web resources and services.
Facebook
NWS on Facebook

Important Change Regarding the AAWU Web Presence

 

Over the last several months, the AAWU has been working to navigate its webpages to a nationally supported server. Security, as well as other needs, have necessitated the change.  In the process, we have made an effort to enhance the functionality of our website, as well as some of our products. As of June 27, 2017, aawu.arh.noaa.gov will be discontinued. The new AAWU web address is weather.gov/aawu. It is now live and will run in-parallel with the old site until it is discontinued. Please send any feedback or questions regarding the new webpages to nws.ar.aawu.webauthors@noaa.gov.  Thank you for your patience during this time of transition.
AAWU Home :: Display TAF Add Bookmark
METAR PAWD 252353Z AUTO 16009KT 10SM CLR 17/12 A2994 RMK AO2 SLP140
 T01670117 10172 20139 58010 TSNO=

METAR PAWD 260053Z AUTO 18009KT 10SM CLR 18/12 A2993 RMK AO2 SLP133
 T01780122 TSNO=

METAR PAWD 260153Z AUTO 13008KT 10SM CLR 18/12 A2992 RMK AO2 SLP131
     T01780122 TSNO=

METAR PAWD 260253Z AUTO 14010KT 10SM CLR 17/12 A2991 RMK AO2 SLP128
     T01670122 56012 TSNO=

METAR PAWD 260353Z AUTO 17008KT 10SM CLR 16/12 A2991 RMK AO2 SLP129
 T01610122 TSNO=

METAR PAWD 260453Z AUTO 15008KT 10SM CLR 15/12 A2991 RMK AO2 SLP129
     T01500117 TSNO=


NOAA's National Weather Service
Alaska Aviation Weather Unit
6930 Sand Lake Road
Anchorage, AK 99502-1845
Disclaimer
Credits
Glossary
Privacy Policy
About Us
Career Opportunities
Contact AAWU Internet Services Site last modified: April, 17th 2012